sensor_id;sensor_type;location;lat;lon;timestamp;pressure;altitude;pressure_sealevel;temperature;humidity
51986;BME280;38002;53.296;6.600;2022-11-11T00:01:38;102743.56;;;12.01;84.21
51986;BME280;38002;53.296;6.600;2022-11-11T00:06:38;102734.75;;;11.97;84.40
51986;BME280;38002;53.296;6.600;2022-11-11T00:11:39;102737.00;;;11.92;84.76
51986;BME280;38002;53.296;6.600;2022-11-11T00:16:39;102723.88;;;11.86;84.68
51986;BME280;38002;53.296;6.600;2022-11-11T00:21:58;102730.16;;;11.87;85.24
51986;BME280;38002;53.296;6.600;2022-11-11T00:27:17;102730.31;;;11.85;85.16
51986;BME280;38002;53.296;6.600;2022-11-11T00:32:18;102717.06;;;11.80;85.41
51986;BME280;38002;53.296;6.600;2022-11-11T00:37:31;102716.44;;;11.77;85.10
51986;BME280;38002;53.296;6.600;2022-11-11T00:42:32;102723.13;;;11.73;85.82
51986;BME280;38002;53.296;6.600;2022-11-11T00:47:32;102719.28;;;11.75;85.58
51986;BME280;38002;53.296;6.600;2022-11-11T00:52:51;102720.16;;;11.76;85.38
51986;BME280;38002;53.296;6.600;2022-11-11T00:57:51;102713.84;;;11.75;85.21
51986;BME280;38002;53.296;6.600;2022-11-11T01:02:52;102711.97;;;11.76;85.63
51986;BME280;38002;53.296;6.600;2022-11-11T01:07:52;102717.31;;;11.77;85.75
51986;BME280;38002;53.296;6.600;2022-11-11T01:12:53;102716.44;;;11.77;85.99
51986;BME280;38002;53.296;6.600;2022-11-11T01:18:13;102711.00;;;11.77;86.09
51986;BME280;38002;53.296;6.600;2022-11-11T01:23:14;102709.13;;;11.77;86.25
51986;BME280;38002;53.296;6.600;2022-11-11T01:28:14;102716.31;;;11.78;86.08
51986;BME280;38002;53.296;6.600;2022-11-11T01:33:14;102703.69;;;11.77;86.38
51986;BME280;38002;53.296;6.600;2022-11-11T01:38:15;102694.50;;;11.78;86.40
51986;BME280;38002;53.296;6.600;2022-11-11T01:43:21;102695.50;;;11.77;86.18
51986;BME280;38002;53.296;6.600;2022-11-11T01:48:38;102716.44;;;11.77;86.76
51986;BME280;38002;53.296;6.600;2022-11-11T01:54:02;102721.03;;;11.76;86.43
51986;BME280;38002;53.296;6.600;2022-11-11T01:59:06;102724.72;;;11.75;86.59
51986;BME280;38002;53.296;6.600;2022-11-11T02:04:09;102731.16;;;11.74;86.40
51986;BME280;38002;53.296;6.600;2022-11-11T02:09:28;102737.63;;;11.73;86.54
51986;BME280;38002;53.296;6.600;2022-11-11T02:14:29;102737.75;;;11.72;86.65
51986;BME280;38002;53.296;6.600;2022-11-11T02:20:01;102729.66;;;11.70;87.20
51986;BME280;38002;53.296;6.600;2022-11-11T02:25:04;102736.09;;;11.69;86.69
51986;BME280;38002;53.296;6.600;2022-11-11T02:30:07;102721.72;;;11.67;86.78
51986;BME280;38002;53.296;6.600;2022-11-11T02:40:25;102716.28;;;11.67;87.18
51986;BME280;38002;53.296;6.600;2022-11-11T02:45:28;102727.28;;;11.66;86.92
51986;BME280;38002;53.296;6.600;2022-11-11T02:50:28;102729.16;;;11.65;87.40
51986;BME280;38002;53.296;6.600;2022-11-11T02:55:29;102745.38;;;11.67;86.83
51986;BME280;38002;53.296;6.600;2022-11-11T03:00:29;102750.72;;;11.68;87.27
51986;BME280;38002;53.296;6.600;2022-11-11T03:05:30;102748.13;;;11.67;87.21
51986;BME280;38002;53.296;6.600;2022-11-11T03:10:30;102762.72;;;11.66;87.30
51986;BME280;38002;53.296;6.600;2022-11-11T03:15:31;102752.34;;;11.60;86.89
51986;BME280;38002;53.296;6.600;2022-11-11T03:20:31;102765.97;;;11.60;87.07
51986;BME280;38002;53.296;6.600;2022-11-11T03:25:50;102762.84;;;11.53;87.56
51986;BME280;38002;53.296;6.600;2022-11-11T03:30:52;102774.97;;;11.49;87.44
51986;BME280;38002;53.296;6.600;2022-11-11T03:35:52;102763.56;;;11.44;87.48
51986;BME280;38002;53.296;6.600;2022-11-11T03:40:54;102751.44;;;11.37;87.50
51986;BME280;38002;53.296;6.600;2022-11-11T03:45:58;102748.19;;;11.32;87.89
51986;BME280;38002;53.296;6.600;2022-11-11T03:50:59;102756.63;;;11.29;87.71
51986;BME280;38002;53.296;6.600;2022-11-11T03:55:59;102756.88;;;11.26;87.84
51986;BME280;38002;53.296;6.600;2022-11-11T04:00:59;102765.25;;;11.23;88.50
51986;BME280;38002;53.296;6.600;2022-11-11T04:06:00;102758.19;;;11.20;88.04
51986;BME280;38002;53.296;6.600;2022-11-11T04:11:31;102761.91;;;11.19;88.51
51986;BME280;38002;53.296;6.600;2022-11-11T04:16:32;102763.75;;;11.19;88.00
51986;BME280;38002;53.296;6.600;2022-11-11T04:21:33;102762.00;;;11.18;88.02
51986;BME280;38002;53.296;6.600;2022-11-11T04:26:42;102754.84;;;11.17;88.04
51986;BME280;38002;53.296;6.600;2022-11-11T04:31:42;102760.53;;;11.14;88.42
51986;BME280;38002;53.296;6.600;2022-11-11T04:37:01;102760.66;;;11.12;88.44
51986;BME280;38002;53.296;6.600;2022-11-11T04:42:02;102749.88;;;11.11;89.13
51986;BME280;38002;53.296;6.600;2022-11-11T04:47:02;102729.84;;;11.12;88.54
51986;BME280;38002;53.296;6.600;2022-11-11T04:52:03;102740.97;;;11.09;88.33
51986;BME280;38002;53.296;6.600;2022-11-11T04:57:22;102739.22;;;11.08;88.81
51986;BME280;38002;53.296;6.600;2022-11-11T05:02:22;102742.94;;;11.07;88.66
51986;BME280;38002;53.296;6.600;2022-11-11T05:07:41;102757.53;;;11.06;88.48
51986;BME280;38002;53.296;6.600;2022-11-11T05:13:00;102755.78;;;11.05;88.65
51986;BME280;38002;53.296;6.600;2022-11-11T05:18:19;102769.53;;;11.03;89.18
51986;BME280;38002;53.296;6.600;2022-11-11T05:23:38;102784.13;;;11.02;89.08
51986;BME280;38002;53.296;6.600;2022-11-11T05:29:14;102775.97;;;11.02;88.75
51986;BME280;38002;53.296;6.600;2022-11-11T05:34:14;102781.50;;;11.01;88.90
51986;BME280;38002;53.296;6.600;2022-11-11T05:39:15;102770.88;;;10.98;89.37
51986;BME280;38002;53.296;6.600;2022-11-11T05:44:15;102776.56;;;10.95;89.03
51986;BME280;38002;53.296;6.600;2022-11-11T05:49:16;102776.91;;;10.90;88.76
51986;BME280;38002;53.296;6.600;2022-11-11T05:54:16;102791.38;;;10.90;89.08
51986;BME280;38002;53.296;6.600;2022-11-11T05:59:17;102790.63;;;10.88;88.70
51986;BME280;38002;53.296;6.600;2022-11-11T06:04:17;102785.66;;;10.82;88.73
51986;BME280;38002;53.296;6.600;2022-11-11T06:09:18;102793.06;;;10.80;89.68
51986;BME280;38002;53.296;6.600;2022-11-11T06:14:18;102801.69;;;10.74;89.12
51986;BME280;38002;53.296;6.600;2022-11-11T06:19:19;102794.72;;;10.70;89.50
51986;BME280;38002;53.296;6.600;2022-11-11T06:24:19;102802.25;;;10.67;89.63
51986;BME280;38002;53.296;6.600;2022-11-11T06:29:20;102800.41;;;10.67;89.72
51986;BME280;38002;53.296;6.600;2022-11-11T06:34:20;102805.63;;;10.70;89.65
51986;BME280;38002;53.296;6.600;2022-11-11T06:39:20;102817.78;;;10.77;89.89
51986;BME280;38002;53.296;6.600;2022-11-11T06:44:21;102830.56;;;10.88;89.58
51986;BME280;38002;53.296;6.600;2022-11-11T06:49:21;102831.00;;;10.95;89.57
51986;BME280;38002;53.296;6.600;2022-11-11T06:54:22;102840.31;;;11.03;89.73
51986;BME280;38002;53.296;6.600;2022-11-11T06:59:22;102845.28;;;11.09;89.69
51986;BME280;38002;53.296;6.600;2022-11-11T07:04:23;102862.28;;;11.13;89.92
51986;BME280;38002;53.296;6.600;2022-11-11T07:09:23;102863.13;;;11.13;89.66
51986;BME280;38002;53.296;6.600;2022-11-11T07:14:25;102873.03;;;11.14;88.85
51986;BME280;38002;53.296;6.600;2022-11-11T07:19:26;102876.72;;;11.13;89.24
51986;BME280;38002;53.296;6.600;2022-11-11T07:24:27;102879.44;;;11.13;88.95
51986;BME280;38002;53.296;6.600;2022-11-11T07:29:27;102894.81;;;11.14;89.33
51986;BME280;38002;53.296;6.600;2022-11-11T07:34:28;102891.22;;;11.14;89.04
51986;BME280;38002;53.296;6.600;2022-11-11T07:39:28;102893.94;;;11.14;89.11
51986;BME280;38002;53.296;6.600;2022-11-11T07:44:29;102913.00;;;11.14;89.18
51986;BME280;38002;53.296;6.600;2022-11-11T07:49:29;102911.28;;;11.13;88.89
51986;BME280;38002;53.296;6.600;2022-11-11T07:54:29;102922.03;;;11.14;89.27
51986;BME280;38002;53.296;6.600;2022-11-11T07:59:30;102931.94;;;11.15;88.77
51986;BME280;38002;53.296;6.600;2022-11-11T08:04:30;102940.13;;;11.15;89.38
51986;BME280;38002;53.296;6.600;2022-11-11T08:09:31;102945.47;;;11.17;88.99
51986;BME280;38002;53.296;6.600;2022-11-11T08:14:31;102958.84;;;11.20;88.92
51986;BME280;38002;53.296;6.600;2022-11-11T08:19:32;102961.56;;;11.20;89.29
51986;BME280;38002;53.296;6.600;2022-11-11T08:24:32;102961.31;;;11.23;89.29
51986;BME280;38002;53.296;6.600;2022-11-11T08:29:32;102973.19;;;11.22;89.07
51986;BME280;38002;53.296;6.600;2022-11-11T08:34:33;102964.19;;;11.21;89.09
51986;BME280;38002;53.296;6.600;2022-11-11T08:39:33;102974.94;;;11.23;89.09
51986;BME280;38002;53.296;6.600;2022-11-11T08:44:34;102971.25;;;11.24;88.68
51986;BME280;38002;53.296;6.600;2022-11-11T08:49:34;102971.25;;;11.24;88.88
51986;BME280;38002;53.296;6.600;2022-11-11T08:54:35;102977.56;;;11.24;89.17
51986;BME280;38002;53.296;6.600;2022-11-11T08:59:36;102982.13;;;11.24;88.85
51986;BME280;38002;53.296;6.600;2022-11-11T09:04:36;102988.56;;;11.23;88.96
51986;BME280;38002;53.296;6.600;2022-11-11T09:09:36;102989.44;;;11.23;89.17
51986;BME280;38002;53.296;6.600;2022-11-11T09:14:37;102997.59;;;11.23;88.98
51986;BME280;38002;53.296;6.600;2022-11-11T09:19:37;102997.69;;;11.22;88.84
51986;BME280;38002;53.296;6.600;2022-11-11T09:24:38;103000.44;;;11.22;89.05
51986;BME280;38002;53.296;6.600;2022-11-11T09:29:38;103010.34;;;11.23;88.99
51986;BME280;38002;53.296;6.600;2022-11-11T09:34:38;103014.91;;;11.22;88.78
51986;BME280;38002;53.296;6.600;2022-11-11T09:39:39;103028.66;;;11.21;88.96
51986;BME280;38002;53.296;6.600;2022-11-11T09:50:02;103037.81;;;11.20;89.03
51986;BME280;38002;53.296;6.600;2022-11-11T09:55:17;103044.47;;;11.16;89.30
51986;BME280;38002;53.296;6.600;2022-11-11T10:00:25;103055.78;;;11.10;89.41
51986;BME280;38002;53.296;6.600;2022-11-11T10:05:33;103049.81;;;11.05;89.29
51986;BME280;38002;53.296;6.600;2022-11-11T10:10:46;103046.44;;;11.01;90.06
51986;BME280;38002;53.296;6.600;2022-11-11T10:16:02;103049.41;;;10.98;89.64
51986;BME280;38002;53.296;6.600;2022-11-11T10:21:11;103037.00;;;10.94;89.32
51986;BME280;38002;53.296;6.600;2022-11-11T10:26:25;103042.44;;;10.94;89.47
51986;BME280;38002;53.296;6.600;2022-11-11T10:31:30;103047.88;;;10.94;90.13
51986;BME280;38002;53.296;6.600;2022-11-11T10:36:31;103054.19;;;10.95;89.61
51986;BME280;38002;53.296;6.600;2022-11-11T10:41:48;103054.94;;;10.97;90.00
51986;BME280;38002;53.296;6.600;2022-11-11T10:52:15;103046.34;;;11.03;89.74
51986;BME280;38002;53.296;6.600;2022-11-11T10:57:35;103046.13;;;11.06;89.98
51986;BME280;38002;53.296;6.600;2022-11-11T11:07:50;103045.13;;;11.07;90.06
51986;BME280;38002;53.296;6.600;2022-11-11T11:18:11;103049.38;;;11.11;89.84
51986;BME280;38002;53.296;6.600;2022-11-11T11:23:13;103051.75;;;11.15;89.62
51986;BME280;38002;53.296;6.600;2022-11-11T11:28:22;103045.44;;;11.15;89.35
51986;BME280;38002;53.296;6.600;2022-11-11T11:33:22;103044.22;;;11.19;89.28
51986;BME280;38002;53.296;6.600;2022-11-11T11:38:39;103039.56;;;11.21;89.16
51986;BME280;38002;53.296;6.600;2022-11-11T11:43:41;103047.50;;;11.24;89.20
51986;BME280;38002;53.296;6.600;2022-11-11T11:49:09;103047.25;;;11.27;89.10
51986;BME280;38002;53.296;6.600;2022-11-11T11:55:18;103055.22;;;11.30;89.20
51986;BME280;38002;53.296;6.600;2022-11-11T12:00:05;103054.34;;;11.29;88.52
51986;BME280;38002;53.296;6.600;2022-11-11T12:10:50;103059.66;;;11.31;88.37
51986;BME280;38002;53.296;6.600;2022-11-11T12:16:02;103071.34;;;11.33;88.46
51986;BME280;38002;53.296;6.600;2022-11-11T12:21:15;103071.09;;;11.36;88.76
51986;BME280;38002;53.296;6.600;2022-11-11T12:32:13;103073.72;;;11.37;88.84
51986;BME280;38002;53.296;6.600;2022-11-11T12:58:26;103109.69;;;11.30;88.18
51986;BME280;38002;53.296;6.600;2022-11-11T13:19:23;103115.81;;;11.21;88.30
51986;BME280;38002;53.296;6.600;2022-11-11T13:24:27;103117.53;;;11.22;88.16
51986;BME280;38002;53.296;6.600;2022-11-11T13:34:35;103123.97;;;11.21;88.13
51986;BME280;38002;53.296;6.600;2022-11-11T13:39:39;103124.19;;;11.18;88.12
51986;BME280;38002;53.296;6.600;2022-11-11T13:44:58;103134.75;;;11.10;87.82
51986;BME280;38002;53.296;6.600;2022-11-11T13:50:07;103135.22;;;11.04;88.54
51986;BME280;38002;53.296;6.600;2022-11-11T13:55:27;103146.53;;;10.98;89.03
51986;BME280;38002;53.296;6.600;2022-11-11T14:00:38;103147.50;;;10.97;88.68
51986;BME280;38002;53.296;6.600;2022-11-11T14:05:38;103131.94;;;10.99;88.70
51986;BME280;38002;53.296;6.600;2022-11-11T14:15:40;103139.13;;;11.00;88.85
51986;BME280;38002;53.296;6.600;2022-11-11T14:20:49;103142.75;;;11.00;88.98
51986;BME280;38002;53.296;6.600;2022-11-11T14:26:14;103147.19;;;11.01;88.53
51986;BME280;38002;53.296;6.600;2022-11-11T14:36:28;103134.34;;;11.03;88.79
51986;BME280;38002;53.296;6.600;2022-11-11T14:57:49;103143.38;;;11.04;88.99
51986;BME280;38002;53.296;6.600;2022-11-11T15:08:52;103156.34;;;11.00;88.85
51986;BME280;38002;53.296;6.600;2022-11-11T15:39:55;103161.66;;;11.02;88.88
51986;BME280;38002;53.296;6.600;2022-11-11T15:45:02;103165.16;;;11.04;88.92
51986;BME280;38002;53.296;6.600;2022-11-11T15:50:30;103160.78;;;11.01;88.78
51986;BME280;38002;53.296;6.600;2022-11-11T15:55:34;103161.66;;;11.02;89.09
51986;BME280;38002;53.296;6.600;2022-11-11T16:00:36;103162.63;;;11.01;89.07
51986;BME280;38002;53.296;6.600;2022-11-11T16:05:41;103174.53;;;11.00;88.88
51986;BME280;38002;53.296;6.600;2022-11-11T16:10:42;103176.25;;;11.01;89.24
51986;BME280;38002;53.296;6.600;2022-11-11T16:16:02;103167.09;;;11.02;89.19
51986;BME280;38002;53.296;6.600;2022-11-11T16:26:31;103166.13;;;11.03;89.04
51986;BME280;38002;53.296;6.600;2022-11-11T16:36:33;103180.50;;;11.05;89.41
51986;BME280;38002;53.296;6.600;2022-11-11T16:41:33;103183.13;;;11.06;89.04
51986;BME280;38002;53.296;6.600;2022-11-11T16:46:40;103178.56;;;11.07;89.48
51986;BME280;38002;53.296;6.600;2022-11-11T16:51:48;103180.31;;;11.08;89.04
51986;BME280;38002;53.296;6.600;2022-11-11T16:57:09;103195.75;;;11.07;89.26
51986;BME280;38002;53.296;6.600;2022-11-11T17:02:18;103191.19;;;11.08;89.23
51986;BME280;38002;53.296;6.600;2022-11-11T17:12:31;103199.91;;;11.13;89.33
51986;BME280;38002;53.296;6.600;2022-11-11T17:17:32;103214.28;;;11.15;89.10
51986;BME280;38002;53.296;6.600;2022-11-11T17:22:32;103208.81;;;11.15;89.15
51986;BME280;38002;53.296;6.600;2022-11-11T17:27:32;103203.28;;;11.16;89.18
51986;BME280;38002;53.296;6.600;2022-11-11T17:32:33;103202.50;;;11.14;88.93
51986;BME280;38002;53.296;6.600;2022-11-11T17:37:34;103216.13;;;11.14;89.17
51986;BME280;38002;53.296;6.600;2022-11-11T17:42:37;103204.34;;;11.14;89.22
51986;BME280;38002;53.296;6.600;2022-11-11T17:47:37;103204.34;;;11.14;89.40
51986;BME280;38002;53.296;6.600;2022-11-11T17:52:38;103203.59;;;11.12;89.02
51986;BME280;38002;53.296;6.600;2022-11-11T17:57:38;103212.53;;;11.14;89.04
51986;BME280;38002;53.296;6.600;2022-11-11T18:02:39;103215.38;;;11.12;89.05
51986;BME280;38002;53.296;6.600;2022-11-11T18:07:40;103212.53;;;11.14;88.84
51986;BME280;38002;53.296;6.600;2022-11-11T18:12:40;103209.59;;;11.17;88.89
51986;BME280;38002;53.296;6.600;2022-11-11T18:17:41;103209.59;;;11.17;88.78
51986;BME280;38002;53.296;6.600;2022-11-11T18:22:41;103223.97;;;11.19;88.48
51986;BME280;38002;53.296;6.600;2022-11-11T18:27:42;103220.38;;;11.18;88.86
51986;BME280;38002;53.296;6.600;2022-11-11T18:32:44;103224.94;;;11.18;88.82
51986;BME280;38002;53.296;6.600;2022-11-11T18:37:46;103221.47;;;11.16;89.19
51986;BME280;38002;53.296;6.600;2022-11-11T18:42:46;103228.66;;;11.17;89.07
51986;BME280;38002;53.296;6.600;2022-11-11T18:47:47;103233.25;;;11.16;88.98
51986;BME280;38002;53.296;6.600;2022-11-11T18:52:47;103230.53;;;11.16;88.67
51986;BME280;38002;53.296;6.600;2022-11-11T18:57:48;103225.06;;;11.16;88.56
51986;BME280;38002;53.296;6.600;2022-11-11T19:02:48;103234.13;;;11.17;88.64
51986;BME280;38002;53.296;6.600;2022-11-11T19:07:49;103238.69;;;11.16;88.85
51986;BME280;38002;53.296;6.600;2022-11-11T19:12:49;103232.38;;;11.16;88.39
51986;BME280;38002;53.296;6.600;2022-11-11T19:17:50;103228.13;;;11.12;88.65
51986;BME280;38002;53.296;6.600;2022-11-11T19:22:51;103232.38;;;11.16;88.56
51986;BME280;38002;53.296;6.600;2022-11-11T19:27:52;103230.63;;;11.15;88.35
51986;BME280;38002;53.296;6.600;2022-11-11T19:32:52;103225.16;;;11.15;88.50
51986;BME280;38002;53.296;6.600;2022-11-11T19:37:53;103221.69;;;11.13;88.60
51986;BME280;38002;53.296;6.600;2022-11-11T19:42:53;103233.56;;;11.12;88.43
51986;BME280;38002;53.296;6.600;2022-11-11T19:47:54;103241.41;;;11.04;88.47
51986;BME280;38002;53.296;6.600;2022-11-11T19:52:54;103238.53;;;10.92;88.16
51986;BME280;38002;53.296;6.600;2022-11-11T19:57:55;103228.41;;;10.82;87.94
51986;BME280;38002;53.296;6.600;2022-11-11T20:02:56;103235.00;;;10.65;88.31
51986;BME280;38002;53.296;6.600;2022-11-11T20:07:56;103231.69;;;10.48;88.29
51986;BME280;38002;53.296;6.600;2022-11-11T20:12:57;103242.59;;;10.33;88.69
51986;BME280;38002;53.296;6.600;2022-11-11T20:17:57;103241.00;;;10.17;88.24
51986;BME280;38002;53.296;6.600;2022-11-11T20:23:02;103233.06;;;9.99;88.33
51986;BME280;38002;53.296;6.600;2022-11-11T20:28:03;103231.91;;;9.89;89.14
51986;BME280;38002;53.296;6.600;2022-11-11T20:33:03;103225.53;;;9.76;88.19
51986;BME280;38002;53.296;6.600;2022-11-11T20:38:04;103237.97;;;9.66;88.75
51986;BME280;38002;53.296;6.600;2022-11-11T20:43:04;103244.94;;;9.56;89.16
51986;BME280;38002;53.296;6.600;2022-11-11T20:48:08;103254.63;;;9.46;89.02
51986;BME280;38002;53.296;6.600;2022-11-11T20:53:08;103256.97;;;9.38;88.85
51986;BME280;38002;53.296;6.600;2022-11-11T20:58:09;103261.91;;;9.31;89.04
51986;BME280;38002;53.296;6.600;2022-11-11T21:03:11;103269.47;;;9.26;89.71
51986;BME280;38002;53.296;6.600;2022-11-11T21:08:11;103280.59;;;9.22;89.19
51986;BME280;38002;53.296;6.600;2022-11-11T21:13:12;103281.97;;;9.15;89.42
51986;BME280;38002;53.296;6.600;2022-11-11T21:18:13;103285.03;;;9.08;89.07
51986;BME280;38002;53.296;6.600;2022-11-11T21:23:14;103277.38;;;9.01;89.83
51986;BME280;38002;53.296;6.600;2022-11-11T21:28:15;103289.53;;;8.94;89.13
51986;BME280;38002;53.296;6.600;2022-11-11T21:33:15;103293.41;;;8.90;89.20
51986;BME280;38002;53.296;6.600;2022-11-11T21:38:16;103303.56;;;8.86;89.38
51986;BME280;38002;53.296;6.600;2022-11-11T21:43:16;103298.41;;;8.82;89.48
51986;BME280;38002;53.296;6.600;2022-11-11T21:48:17;103308.66;;;8.77;89.75
51986;BME280;38002;53.296;6.600;2022-11-11T21:53:17;103306.22;;;8.72;89.01
51986;BME280;38002;53.296;6.600;2022-11-11T21:58:18;103310.94;;;8.69;89.50
51986;BME280;38002;53.296;6.600;2022-11-11T22:03:18;103315.75;;;8.63;89.27
51986;BME280;38002;53.296;6.600;2022-11-11T22:08:19;103320.69;;;8.57;88.91
51986;BME280;38002;53.296;6.600;2022-11-11T22:13:19;103321.91;;;8.51;89.01
51986;BME280;38002;53.296;6.600;2022-11-11T22:18:19;103323.06;;;8.47;90.00
51986;BME280;38002;53.296;6.600;2022-11-11T22:23:20;103341.25;;;8.45;88.87
51986;BME280;38002;53.296;6.600;2022-11-11T22:28:20;103326.03;;;8.43;89.26
51986;BME280;38002;53.296;6.600;2022-11-11T22:33:21;103328.03;;;8.39;89.16
51986;BME280;38002;53.296;6.600;2022-11-11T22:38:21;103330.81;;;8.38;88.75
51986;BME280;38002;53.296;6.600;2022-11-11T22:43:22;103333.72;;;8.35;89.52
51986;BME280;38002;53.296;6.600;2022-11-11T22:48:22;103332.84;;;8.34;88.96
51986;BME280;38002;53.296;6.600;2022-11-11T22:53:23;103334.78;;;8.32;89.85
51986;BME280;38002;53.296;6.600;2022-11-11T22:58:23;103321.63;;;8.25;89.59
51986;BME280;38002;53.296;6.600;2022-11-11T23:03:23;103323.56;;;8.23;88.75
51986;BME280;38002;53.296;6.600;2022-11-11T23:08:24;103330.09;;;8.18;89.09
51986;BME280;38002;53.296;6.600;2022-11-11T23:13:24;103340.16;;;8.16;89.23
51986;BME280;38002;53.296;6.600;2022-11-11T23:18:25;103346.69;;;8.12;89.63
51986;BME280;38002;53.296;6.600;2022-11-11T23:23:26;103351.66;;;8.04;88.97
51986;BME280;38002;53.296;6.600;2022-11-11T23:28:27;103343.09;;;7.96;89.11
51986;BME280;38002;53.296;6.600;2022-11-11T23:33:31;103359.59;;;7.92;89.57
51986;BME280;38002;53.296;6.600;2022-11-11T23:38:33;103358.91;;;7.88;89.88
51986;BME280;38002;53.296;6.600;2022-11-11T23:43:34;103351.09;;;7.82;89.95
51986;BME280;38002;53.296;6.600;2022-11-11T23:48:35;103347.63;;;7.80;89.26
51986;BME280;38002;53.296;6.600;2022-11-11T23:53:36;103353.97;;;7.79;89.78
51986;BME280;38002;53.296;6.600;2022-11-11T23:58:36;103355.09;;;7.75;90.23
